createdAt,value
2019-02-05T00:02:08.812Z,240.87
2019-02-05T00:04:35.552Z,239.63
2019-02-05T00:07:02.288Z,232.83
2019-02-05T00:09:29.064Z,248.97
2019-02-05T00:11:55.796Z,198.03
2019-02-05T00:14:22.814Z,191.73
2019-02-05T00:16:49.565Z,186.70
2019-02-05T00:19:16.268Z,186.67
2019-02-05T00:21:42.991Z,200.77
2019-02-05T00:24:09.845Z,224.63
2019-02-05T00:26:36.535Z,207.80
2019-02-05T00:29:03.266Z,197.93
2019-02-05T00:31:30.142Z,222.67
2019-02-05T00:33:56.841Z,189.77
2019-02-05T00:36:23.552Z,263.00
2019-02-05T00:38:50.325Z,238.47
2019-02-05T00:41:17.108Z,201.23
2019-02-05T00:43:44.020Z,212.30
2019-02-05T00:46:10.761Z,239.00
2019-02-05T00:48:37.519Z,283.23
2019-02-05T00:51:04.504Z,304.53
2019-02-05T00:53:31.336Z,314.67
2019-02-05T00:55:58.042Z,278.63
2019-02-05T00:58:24.745Z,298.70
2019-02-05T01:00:51.491Z,289.20
2019-02-05T01:03:18.184Z,294.10
2019-02-05T01:05:44.928Z,230.53
2019-02-05T01:08:11.655Z,184.60
2019-02-05T01:10:38.573Z,196.07
2019-02-05T01:13:05.270Z,173.77
2019-02-05T01:15:32.137Z,184.73
2019-02-05T01:17:58.874Z,175.63
2019-02-05T01:20:25.589Z,177.27
2019-02-05T01:22:52.482Z,197.00
2019-02-05T01:25:19.787Z,195.23
2019-02-05T01:27:46.940Z,184.77
2019-02-05T01:30:19.362Z,179.97
2019-02-05T01:32:46.106Z,176.17
2019-02-05T01:35:12.870Z,179.53
2019-02-05T01:37:39.684Z,176.63
2019-02-05T01:40:10.047Z,167.87
2019-02-05T01:42:36.854Z,173.13
2019-02-05T01:45:06.346Z,148.97
2019-02-05T01:47:33.089Z,148.93
2019-02-05T01:49:59.787Z,135.70
2019-02-05T01:52:26.520Z,158.53
2019-02-05T01:54:53.201Z,149.33
2019-02-05T01:57:19.917Z,105.87
2019-02-05T01:59:46.697Z,112.90
2019-02-05T02:02:13.746Z,118.13
2019-02-05T02:04:40.535Z,124.23
2019-02-05T02:07:07.697Z,165.30
2019-02-05T02:09:34.369Z,225.23
2019-02-05T02:12:01.055Z,231.00
2019-02-05T02:14:27.791Z,248.33
2019-02-05T02:16:54.491Z,235.30
2019-02-05T02:19:21.190Z,255.17
2019-02-05T02:21:48.178Z,249.73
2019-02-05T02:24:14.918Z,226.10
2019-02-05T02:26:51.617Z,221.30
2019-02-05T02:29:10.160Z,209.53
2019-02-05T02:31:36.889Z,229.57
2019-02-05T02:34:03.647Z,189.40
2019-02-05T02:36:30.471Z,249.53
2019-02-05T02:38:57.434Z,244.93
2019-02-05T02:41:24.140Z,262.50
2019-02-05T02:43:51.834Z,245.80
2019-02-05T02:46:18.564Z,226.70
2019-02-05T02:48:45.248Z,225.73
2019-02-05T02:51:12.018Z,209.10
2019-02-05T02:53:38.735Z,208.53
2019-02-05T02:56:05.427Z,219.53
2019-02-05T02:58:32.461Z,208.33
2019-02-05T03:00:59.165Z,185.77
2019-02-05T03:03:25.854Z,165.83
2019-02-05T03:05:52.620Z,163.10
2019-02-05T03:08:19.447Z,166.10
2019-02-05T03:10:46.151Z,156.57
2019-02-05T03:13:12.915Z,155.20
2019-02-05T03:15:39.614Z,163.83
2019-02-05T03:18:06.307Z,157.77
2019-02-05T03:20:33.354Z,171.97
2019-02-05T03:23:00.041Z,135.70
2019-02-05T03:25:26.732Z,155.73
2019-02-05T03:27:54.291Z,150.87
2019-02-05T03:30:22.628Z,156.47
2019-02-05T03:32:49.440Z,151.23
2019-02-05T03:35:16.290Z,179.33
2019-02-05T03:37:42.998Z,173.13
2019-02-05T03:40:28.356Z,151.00
2019-02-05T03:42:55.063Z,94.63
2019-02-05T03:45:23.210Z,104.67
2019-02-05T03:47:51.188Z,74.40
2019-02-05T03:50:17.919Z,75.83
2019-02-05T03:52:47.637Z,52.10
2019-02-05T03:55:30.203Z,60.53
2019-02-05T03:58:18.961Z,57.37
2019-02-05T04:00:58.462Z,50.53
2019-02-05T04:03:49.951Z,54.33
2019-02-05T04:06:26.535Z,45.40
2019-02-05T04:09:14.994Z,44.17
2019-02-05T04:11:48.127Z,43.70
2019-02-05T04:14:51.864Z,37.10
2019-02-05T04:17:22.214Z,80.03
2019-02-05T04:19:55.282Z,123.80
2019-02-05T04:22:42.236Z,123.27
2019-02-05T04:25:15.484Z,106.67
2019-02-05T04:27:47.423Z,110.77
2019-02-05T04:30:42.397Z,96.70
2019-02-05T04:33:19.056Z,44.90
2019-02-05T04:35:52.369Z,35.03
2019-02-05T04:38:37.589Z,44.57
2019-02-05T04:41:33.797Z,42.60
2019-02-05T04:44:28.691Z,39.63
2019-02-05T04:47:14.328Z,44.93
2019-02-05T04:49:53.704Z,46.27
2019-02-05T04:52:42.480Z,39.33
2019-02-05T04:55:25.249Z,38.13
2019-02-05T04:58:14.123Z,56.43
2019-02-05T05:00:56.173Z,59.17
2019-02-05T05:03:44.730Z,73.10
2019-02-05T05:06:24.419Z,56.70
2019-02-05T05:09:13.759Z,55.50
2019-02-05T05:11:41.245Z,58.57
2019-02-05T05:14:07.976Z,61.80
2019-02-05T05:16:34.658Z,52.80
2019-02-05T05:19:01.632Z,54.17
2019-02-05T05:21:28.346Z,66.60
2019-02-05T05:23:55.540Z,75.63
2019-02-05T05:26:22.298Z,91.87
2019-02-05T05:28:49.018Z,82.77
2019-02-05T05:31:15.766Z,81.70
2019-02-05T05:33:42.564Z,88.27
2019-02-05T05:36:09.264Z,87.83
2019-02-05T05:38:35.964Z,134.97
2019-02-05T05:41:02.734Z,285.67
2019-02-05T05:43:29.437Z,402.97
2019-02-05T05:45:56.275Z,303.50
2019-02-05T05:48:24.096Z,187.03
2019-02-05T05:50:50.817Z,168.57
2019-02-05T05:53:17.569Z,134.53
2019-02-05T05:55:44.345Z,143.70
2019-02-05T05:58:21.946Z,88.33
2019-02-05T06:00:39.568Z,71.67
2019-02-05T06:03:06.892Z,78.80
2019-02-05T06:05:54.400Z,85.63
2019-02-05T06:08:22.179Z,101.37
2019-02-05T06:10:48.893Z,109.67
2019-02-05T06:13:15.580Z,94.77
2019-02-05T06:15:42.368Z,95.63
2019-02-05T06:18:09.087Z,94.97
2019-02-05T06:20:35.828Z,74.37
2019-02-05T06:23:02.560Z,90.53
2019-02-05T06:25:29.298Z,97.40
2019-02-05T06:27:56.008Z,99.97
2019-02-05T06:30:22.774Z,105.40
2019-02-05T06:32:49.592Z,87.43
2019-02-05T06:35:16.333Z,77.67
2019-02-05T06:37:43.113Z,96.97
2019-02-05T06:40:18.551Z,102.53
2019-02-05T06:42:45.306Z,128.97
2019-02-05T06:45:13.731Z,117.43
2019-02-05T06:47:40.447Z,111.63
2019-02-05T06:50:10.106Z,110.83
2019-02-05T06:52:36.812Z,123.67
2019-02-05T06:55:05.924Z,125.60
2019-02-05T06:57:32.746Z,173.80
2019-02-05T06:59:59.470Z,179.00
2019-02-05T07:02:26.197Z,161.17
2019-02-05T07:05:03.247Z,146.53
2019-02-05T07:07:30.485Z,134.37
2019-02-05T07:10:06.433Z,123.13
2019-02-05T07:12:34.410Z,151.43
2019-02-05T07:15:01.115Z,170.43
2019-02-05T07:17:28.042Z,198.77
2019-02-05T07:19:54.781Z,135.53
2019-02-05T07:22:21.513Z,124.27
2019-02-05T07:24:48.235Z,140.80
2019-02-05T07:27:14.969Z,126.67
2019-02-05T07:29:41.682Z,118.40
2019-02-05T07:32:08.828Z,109.60
2019-02-05T07:34:35.557Z,127.03
2019-02-05T07:37:02.268Z,131.27
2019-02-05T07:39:29.037Z,125.30
2019-02-05T07:41:55.759Z,127.33
2019-02-05T07:44:22.466Z,140.10
2019-02-05T07:46:49.191Z,132.27
2019-02-05T07:49:15.984Z,120.40
2019-02-05T07:51:42.840Z,118.70
2019-02-05T07:54:09.631Z,107.33
2019-02-05T07:56:36.582Z,93.83
2019-02-05T07:59:10.412Z,98.53
2019-02-05T08:01:32.497Z,92.40
2019-02-05T08:04:00.139Z,101.17
2019-02-05T08:06:27.714Z,101.23
2019-02-05T08:08:54.712Z,82.10
2019-02-05T08:11:22.090Z,97.87
2019-02-05T08:13:49.600Z,107.93
2019-02-05T08:16:16.745Z,116.97
2019-02-05T08:18:44.207Z,112.40
2019-02-05T08:21:10.979Z,122.57
2019-02-05T08:23:37.791Z,131.50
2019-02-05T08:26:04.498Z,128.17
2019-02-05T08:28:40.644Z,126.30
2019-02-05T08:30:59.757Z,120.27
2019-02-05T08:33:26.467Z,116.00
2019-02-05T08:35:53.337Z,112.60
2019-02-05T08:38:20.077Z,114.23
2019-02-05T08:40:47.066Z,119.07
2019-02-05T08:43:13.886Z,120.20
2019-02-05T08:45:40.799Z,145.50
2019-02-05T08:48:10.384Z,131.43
2019-02-05T08:50:39.131Z,130.47
2019-02-05T08:53:06.942Z,114.50
2019-02-05T08:55:34.670Z,105.90
2019-02-05T08:58:09.590Z,103.10
2019-02-05T09:00:37.899Z,96.10
2019-02-05T09:03:05.622Z,103.87
2019-02-05T09:05:34.239Z,92.27
2019-02-05T09:08:01.214Z,81.03
2019-02-05T09:10:33.760Z,88.03
2019-02-05T09:13:00.478Z,86.20
2019-02-05T09:15:29.657Z,84.30
2019-02-05T09:17:57.208Z,88.57
2019-02-05T09:20:23.958Z,90.20
2019-02-05T09:22:50.654Z,80.77
2019-02-05T09:25:18.268Z,95.93
2019-02-05T09:27:45.238Z,90.40
2019-02-05T09:30:25.429Z,103.57
2019-02-05T09:32:56.136Z,104.27
2019-02-05T09:35:24.947Z,93.37
2019-02-05T09:37:52.939Z,90.17
2019-02-05T09:40:26.104Z,80.87
2019-02-05T09:42:53.140Z,79.60
2019-02-05T09:45:20.002Z,105.60
2019-02-05T09:47:46.787Z,141.80
2019-02-05T09:50:16.085Z,127.33
2019-02-05T09:52:42.795Z,90.83
2019-02-05T09:55:15.908Z,78.93
2019-02-05T09:57:42.616Z,77.67
2019-02-05T10:00:26.800Z,78.73
2019-02-05T10:02:53.888Z,79.83
2019-02-05T10:05:25.243Z,75.87
2019-02-05T10:07:52.020Z,88.80
2019-02-05T10:10:20.263Z,92.43
2019-02-05T10:12:47.193Z,87.43
2019-02-05T10:15:16.413Z,90.60
2019-02-05T10:17:43.186Z,101.07
2019-02-05T10:20:11.021Z,99.83
2019-02-05T10:22:38.077Z,96.20
2019-02-05T10:25:09.887Z,93.00
2019-02-05T10:27:36.645Z,100.07
2019-02-05T10:30:12.729Z,100.83
2019-02-05T10:32:39.638Z,94.47
2019-02-05T10:35:07.759Z,98.67
2019-02-05T10:37:35.331Z,100.30
2019-02-05T10:40:02.127Z,109.23
2019-02-05T10:42:28.840Z,104.33
2019-02-05T10:44:55.636Z,104.60
2019-02-05T10:47:22.376Z,96.37
2019-02-05T10:49:49.193Z,100.00
2019-02-05T10:52:16.061Z,96.17
2019-02-05T10:54:42.835Z,89.80
2019-02-05T10:57:09.728Z,85.67
2019-02-05T10:59:36.771Z,80.50
2019-02-05T11:02:03.487Z,80.10
2019-02-05T11:04:30.218Z,88.03
2019-02-05T11:06:57.067Z,68.93
2019-02-05T11:09:24.607Z,80.27
2019-02-05T11:11:51.528Z,86.63
2019-02-05T11:14:18.929Z,93.90
2019-02-05T11:16:45.629Z,77.97
2019-02-05T11:19:15.099Z,80.30
2019-02-05T11:21:42.146Z,77.50
2019-02-05T11:24:09.969Z,77.90
2019-02-05T11:26:39.738Z,80.60
2019-02-05T11:29:08.424Z,78.90
2019-02-05T11:31:35.139Z,74.83
2019-02-05T11:34:02.155Z,72.50
2019-02-05T11:36:52.055Z,68.70
2019-02-05T11:39:18.645Z,74.07
2019-02-05T11:41:45.342Z,78.30
2019-02-05T11:44:12.099Z,79.23
2019-02-05T11:46:38.828Z,80.77
2019-02-05T11:49:05.512Z,79.73
2019-02-05T11:51:32.953Z,75.53
2019-02-05T11:53:59.962Z,82.03
2019-02-05T11:56:26.812Z,91.80
2019-02-05T11:58:54.266Z,82.70
2019-02-05T12:01:21.058Z,82.90
2019-02-05T12:03:47.771Z,90.90
2019-02-05T12:06:14.829Z,91.87
2019-02-05T12:08:41.910Z,90.97
2019-02-05T12:11:08.945Z,90.27
2019-02-05T12:13:37.107Z,97.53
2019-02-05T12:16:04.096Z,97.63
2019-02-05T12:18:30.927Z,104.63
2019-02-05T12:20:57.684Z,98.30
2019-02-05T12:23:27.347Z,101.10
2019-02-05T12:25:54.114Z,98.67
2019-02-05T12:28:21.304Z,108.30
2019-02-05T12:30:47.996Z,108.80
2019-02-05T12:33:14.683Z,112.13
2019-02-05T12:35:41.948Z,102.37
2019-02-05T12:38:08.645Z,110.47
2019-02-05T12:40:35.330Z,114.93
2019-02-05T12:43:02.104Z,102.43
2019-02-05T12:45:30.891Z,99.23
2019-02-05T12:47:57.597Z,106.27
2019-02-05T12:50:27.342Z,105.97
2019-02-05T12:52:54.127Z,104.07
2019-02-05T12:55:21.224Z,106.27
2019-02-05T12:57:47.961Z,111.97
2019-02-05T13:00:23.786Z,100.10
2019-02-05T13:02:50.589Z,103.47
2019-02-05T13:05:17.396Z,99.67
2019-02-05T13:07:44.107Z,108.50
2019-02-05T13:10:14.483Z,110.57
2019-02-05T13:12:41.226Z,98.83
2019-02-05T13:15:09.747Z,100.67
2019-02-05T13:17:36.557Z,104.77
2019-02-05T13:20:06.886Z,94.27
2019-02-05T13:22:33.611Z,107.80
2019-02-05T13:25:00.450Z,106.17
2019-02-05T13:27:27.466Z,110.23
2019-02-05T13:29:54.182Z,114.00
2019-02-05T13:32:20.942Z,130.70
2019-02-05T13:34:47.674Z,112.23
2019-02-05T13:37:14.383Z,114.90
2019-02-05T13:39:41.970Z,114.37
2019-02-05T13:42:08.693Z,124.73
2019-02-05T13:44:35.464Z,136.13
2019-02-05T13:47:02.531Z,129.80
2019-02-05T13:49:29.302Z,124.97
2019-02-05T13:51:56.083Z,137.67
2019-02-05T13:54:22.896Z,120.30
2019-02-05T13:56:49.578Z,118.07
2019-02-05T13:59:16.277Z,114.83
2019-02-05T14:01:44.663Z,116.97
2019-02-05T14:04:11.644Z,123.37
2019-02-05T14:06:38.348Z,123.47
2019-02-05T14:09:10.645Z,109.00
2019-02-05T14:11:37.313Z,115.70
2019-02-05T14:14:04.055Z,114.30
2019-02-05T14:16:30.787Z,120.23
2019-02-05T14:18:57.484Z,124.77
2019-02-05T14:21:24.255Z,121.40
2019-02-05T14:23:51.394Z,125.03
2019-02-05T14:26:18.192Z,129.97
2019-02-05T14:28:44.899Z,135.83
2019-02-05T14:31:11.756Z,121.67
2019-02-05T14:33:38.454Z,141.50
2019-02-05T14:36:05.174Z,143.47
2019-02-05T14:38:31.923Z,142.50
2019-02-05T14:40:58.634Z,134.97
2019-02-05T14:43:25.752Z,119.07
2019-02-05T14:45:52.554Z,127.47
2019-02-05T14:48:19.247Z,100.20
2019-02-05T14:50:46.658Z,105.03
2019-02-05T14:53:13.446Z,109.90
2019-02-05T14:55:40.145Z,96.47
2019-02-05T14:58:08.630Z,81.00
2019-02-05T15:00:36.380Z,84.77
2019-02-05T15:03:05.861Z,75.83
2019-02-05T15:05:32.560Z,76.90
2019-02-05T15:07:59.361Z,83.30
2019-02-05T15:10:26.122Z,77.57
2019-02-05T15:12:52.822Z,73.00
2019-02-05T15:15:26.439Z,67.57
2019-02-05T15:17:53.164Z,67.50
2019-02-05T15:20:26.193Z,64.43
2019-02-05T15:22:53.120Z,64.80
2019-02-05T15:25:19.823Z,66.20
2019-02-05T15:27:46.532Z,61.10
2019-02-05T15:30:19.375Z,63.10
2019-02-05T15:33:04.837Z,59.13
2019-02-05T15:35:34.362Z,58.70
2019-02-05T15:38:01.114Z,63.07
2019-02-05T15:40:27.798Z,57.83
2019-02-05T15:42:54.559Z,58.33
2019-02-05T15:45:21.703Z,60.47
2019-02-05T15:47:48.511Z,64.87
2019-02-05T15:50:15.250Z,68.87
2019-02-05T15:52:41.968Z,58.00
2019-02-05T15:55:10.170Z,58.83
2019-02-05T15:57:36.978Z,69.60
2019-02-05T16:00:15.840Z,80.73
2019-02-05T16:02:42.576Z,60.73
2019-02-05T16:05:10.750Z,55.93
2019-02-05T16:07:38.395Z,56.27
2019-02-05T16:10:11.504Z,55.93
2019-02-05T16:12:38.346Z,63.50
2019-02-05T16:15:07.368Z,57.97
2019-02-05T16:17:34.558Z,46.67
2019-02-05T16:20:01.286Z,76.40
2019-02-05T16:22:27.953Z,126.40
2019-02-05T16:24:54.707Z,136.17
2019-02-05T16:27:21.511Z,64.27
2019-02-05T16:29:48.298Z,62.17
2019-02-05T16:32:17.593Z,55.13
2019-02-05T16:34:43.974Z,59.33
2019-02-05T16:37:10.737Z,57.80
2019-02-05T16:42:31.547Z,40.17
2019-02-05T16:44:58.262Z,47.50
2019-02-05T16:47:25.352Z,44.23
2019-02-05T16:49:52.246Z,39.70
2019-02-05T16:52:18.988Z,43.90
2019-02-05T16:54:45.775Z,48.93
2019-02-05T16:57:12.551Z,90.90
2019-02-05T16:59:39.494Z,42.17
2019-02-05T17:06:00.347Z,33.13
2019-02-05T17:08:27.204Z,37.13
2019-02-05T17:10:53.915Z,50.20
2019-02-05T17:13:20.629Z,51.27
2019-02-05T17:15:47.381Z,40.83
2019-02-05T17:18:23.371Z,44.40
2019-02-05T17:20:42.554Z,52.80
2019-02-05T17:23:09.451Z,47.97
2019-02-05T17:25:36.378Z,51.23
2019-02-05T17:28:05.639Z,63.00
2019-02-05T17:30:37.217Z,62.93
2019-02-05T17:33:04.141Z,51.57
2019-02-05T17:35:30.967Z,53.13
2019-02-05T17:37:57.728Z,50.77
2019-02-05T17:40:25.235Z,59.87
2019-02-05T17:42:53.891Z,51.63
2019-02-05T17:45:23.652Z,51.37
2019-02-05T17:47:50.491Z,55.50
2019-02-05T17:50:17.182Z,39.20
2019-02-05T17:52:43.939Z,39.77
2019-02-05T17:55:15.695Z,39.77
2019-02-05T17:57:42.419Z,35.43
2019-02-05T18:00:29.242Z,50.20
2019-02-05T18:02:55.943Z,37.30
2019-02-05T18:05:25.243Z,32.07
2019-02-05T18:07:54.973Z,39.27
2019-02-05T18:10:24.420Z,51.33
2019-02-05T18:13:18.554Z,52.70
2019-02-05T18:15:45.273Z,31.70
2019-02-05T18:18:12.456Z,62.00
2019-02-05T18:20:39.155Z,36.20
2019-02-05T18:23:05.870Z,39.13
2019-02-05T18:29:20.099Z,45.43
2019-02-05T18:31:46.002Z,48.23
2019-02-05T18:34:14.798Z,45.53
2019-02-05T18:36:41.205Z,40.47
2019-02-05T18:39:08.078Z,44.87
2019-02-05T18:41:34.754Z,36.60
2019-02-05T18:44:01.470Z,38.43
2019-02-05T18:46:28.227Z,38.97
2019-02-05T18:49:04.622Z,37.87
2019-02-05T18:51:23.446Z,38.77
2019-02-05T18:53:50.603Z,42.93
2019-02-05T18:56:17.284Z,46.07
2019-02-05T18:58:44.003Z,50.17
2019-02-05T19:01:10.802Z,52.07
2019-02-05T19:03:37.492Z,56.00
2019-02-05T19:06:04.201Z,49.00
2019-02-05T19:08:31.202Z,50.20
2019-02-05T19:10:57.898Z,59.37
2019-02-05T19:13:24.923Z,46.30
2019-02-05T19:15:51.666Z,45.33
2019-02-05T19:18:18.352Z,40.33
2019-02-05T19:20:45.053Z,43.63
2019-02-05T19:23:11.876Z,44.67
2019-02-05T19:25:55.704Z,43.23
2019-02-05T19:28:24.686Z,43.20
2019-02-05T19:30:53.220Z,36.47
2019-02-05T19:33:27.074Z,41.80
2019-02-05T19:35:48.468Z,42.57
2019-02-05T19:38:15.179Z,44.67
2019-02-05T19:40:41.872Z,48.63
2019-02-05T19:43:08.761Z,49.77
2019-02-05T19:45:43.398Z,57.50
2019-02-05T19:48:12.085Z,61.33
2019-02-05T19:50:38.892Z,57.13
2019-02-05T19:53:05.694Z,51.23
2019-02-05T19:55:32.446Z,48.07
2019-02-05T19:57:59.139Z,58.87
2019-02-05T20:00:25.809Z,52.30
2019-02-05T20:02:55.406Z,50.83
2019-02-05T20:05:21.094Z,49.03
2019-02-05T20:07:48.262Z,40.67
2019-02-05T20:10:16.295Z,40.63
2019-02-05T20:12:43.005Z,31.93
2019-02-05T20:15:14.618Z,30.57
2019-02-05T20:17:41.395Z,30.50
2019-02-05T20:20:18.459Z,39.10
2019-02-05T20:22:45.549Z,33.90
2019-02-05T20:25:14.871Z,37.33
2019-02-05T20:27:41.593Z,37.93
2019-02-05T20:30:14.898Z,34.93
2019-02-05T20:32:41.591Z,36.93
2019-02-05T20:35:08.285Z,42.77
2019-02-05T20:37:35.087Z,45.90
2019-02-05T20:40:01.812Z,50.63
2019-02-05T20:42:28.909Z,53.83
2019-02-05T20:44:55.868Z,53.80
2019-02-05T20:47:22.547Z,52.67
2019-02-05T20:49:49.264Z,63.80
2019-02-05T20:52:16.029Z,57.33
2019-02-05T20:54:42.736Z,60.07
2019-02-05T20:57:09.448Z,62.53
2019-02-05T20:59:36.215Z,67.83
2019-02-05T21:02:02.915Z,77.87
2019-02-05T21:04:30.082Z,127.57
2019-02-05T21:07:01.648Z,119.23
2019-02-05T21:09:30.196Z,119.67
2019-02-05T21:11:57.820Z,116.93
2019-02-05T21:14:24.575Z,121.37
2019-02-05T21:16:52.312Z,145.63
2019-02-05T21:19:18.988Z,143.37
2019-02-05T21:21:46.154Z,166.17
2019-02-05T21:24:12.892Z,169.87
2019-02-05T21:26:39.566Z,177.10
2019-02-05T21:29:10.052Z,208.07
2019-02-05T21:31:36.780Z,242.33
2019-02-05T21:34:14.924Z,178.53
2019-02-05T21:36:36.725Z,192.43
2019-02-05T21:39:06.817Z,242.30
2019-02-05T21:41:33.510Z,158.27
2019-02-05T21:44:00.247Z,131.03
2019-02-05T21:46:26.970Z,118.60
2019-02-05T21:48:53.693Z,110.33
2019-02-05T21:51:20.597Z,133.37
2019-02-05T21:53:47.294Z,129.10
2019-02-05T21:56:13.980Z,120.17
2019-02-05T21:58:40.722Z,126.40
2019-02-05T22:01:14.337Z,137.20
2019-02-05T22:03:47.195Z,171.63
2019-02-05T22:06:20.897Z,190.57
2019-02-05T22:08:47.924Z,197.37
2019-02-05T22:11:14.670Z,197.97
2019-02-05T22:13:41.440Z,151.00
2019-02-05T22:16:08.360Z,153.00
2019-02-05T22:18:35.158Z,148.90
2019-02-05T22:21:02.357Z,164.53
2019-02-05T22:23:29.603Z,161.93
2019-02-05T22:25:56.294Z,176.20
2019-02-05T22:28:22.997Z,170.57
2019-02-05T22:30:50.391Z,196.17
2019-02-05T22:33:17.071Z,146.37
2019-02-05T22:35:43.759Z,134.47
2019-02-05T22:38:13.581Z,133.00
2019-02-05T22:40:40.246Z,136.20
2019-02-05T22:43:07.363Z,136.53
2019-02-05T22:45:34.094Z,124.83
2019-02-05T22:48:00.803Z,121.60
2019-02-05T22:50:34.131Z,114.80
2019-02-05T22:53:03.178Z,122.70
2019-02-05T22:55:29.895Z,116.73
2019-02-05T22:57:56.571Z,118.63
2019-02-05T23:00:49.469Z,112.80
2019-02-05T23:03:19.502Z,113.57
2019-02-05T23:06:08.253Z,111.27
2019-02-05T23:08:34.930Z,106.90
2019-02-05T23:11:11.459Z,118.13
2019-02-05T23:13:38.137Z,111.57
2019-02-05T23:16:05.739Z,120.93
2019-02-05T23:18:32.513Z,112.53
2019-02-05T23:20:59.232Z,113.10
2019-02-05T23:23:25.934Z,110.53
2019-02-05T23:25:52.662Z,100.90
2019-02-05T23:28:19.418Z,106.43
2019-02-05T23:30:46.274Z,116.53
2019-02-05T23:33:13.072Z,131.80
2019-02-05T23:35:39.731Z,109.53
2019-02-05T23:38:06.438Z,89.93
2019-02-05T23:40:33.222Z,98.33
2019-02-05T23:43:00.013Z,80.87
2019-02-05T23:45:26.727Z,87.10
2019-02-05T23:47:53.487Z,100.23
2019-02-05T23:50:20.668Z,94.10
2019-02-05T23:52:47.371Z,98.67
2019-02-05T23:55:14.154Z,91.93
2019-02-05T23:57:40.832Z,85.40
